Flight Track Log - Related Links

Times and Time Zones

All times are in EDT time to prevent confusion due to time zone crossing. See the N487VC flight status page for this flight to view local times or setup timezone preferences in your user account.

Time Position Orientation Groundspeed Altitude Reporting Facility
EDT Latitude Longitude Course Direction KTS MPH feet Rate Location/Type
Sun 06:42:03 AM 41.0833 -73.7333 56° Northeast 147 169 2,200  Level New York TRACON
Sun 06:43:03 AM 41.1000 -73.7667 304° West 156 180 4,200 1,750 Climbing New York TRACON
Sun 06:44:03 AM 41.1333 -73.7333 37° Northeast 177 204 5,700 1,650 Climbing New York TRACON
Sun 06:45:03 AM 41.1500 -73.6667 72° East 190 219 7,500 1,600 Climbing New York TRACON
Sun 06:46:03 AM 41.1833 -73.6000 56° Northeast 209 241 8,900 750 Climbing New York TRACON
Sun 06:47:00 AM 41.2463 -73.3741 56° Northeast  Level FlightAware Approximate
Sun 06:47:03 AM 41.2167 -73.5333 56° Northeast 254 292 9,000  Level New York TRACON
Sun 06:48:03 AM 41.2500 -73.4500 62° Northeast 258 297 9,000  Level New York TRACON
Sun 06:49:03 AM 41.2833 -73.3667 62° Northeast 262 302 9,000  Level New York TRACON
Sun 06:49:36 AM 41.3069 -73.3189 57° Northeast 261 300 9,000  Level Boston Center
Sun 06:50:19 AM 41.3344 -73.2583 59° Northeast 260 299 9,000  Level Boston Center
Sun 06:51:19 AM 41.3728 -73.1703 60° Northeast 262 302 9,000  Level Boston Center
Sun 06:52:20 AM 41.4231 -73.1044 44° Northeast 257 296 9,000  Level Boston Center
Sun 06:53:21 AM 41.4714 -73.0358 47° Northeast 257 296 9,000  Level Boston Center
Sun 06:54:21 AM 41.5217 -72.9642 47° Northeast 259 298 9,000  Level Boston Center
Sun 06:55:22 AM 41.5700 -72.8950 47° Northeast 259 298 9,000  Level Boston Center
Sun 06:56:22 AM 41.6181 -72.8289 46° Northeast 259 298 9,000  Level Boston Center
Sun 06:57:23 AM 41.6706 -72.7542 47° Northeast 259 298 9,000  Level Boston Center
Sun 06:58:24 AM 41.7167 -72.6819 49° Northeast 259 298 9,000  Level Boston Center
Sun 06:59:24 AM 41.7647 -72.6128 47° Northeast 257 296 9,000  Level Boston Center
Sun 07:00:25 AM 41.8147 -72.5458 45° Northeast 258 297 9,000  Level Boston Center
Sun 07:01:25 AM 41.8647 -72.4736 47° Northeast 258 297 9,000  Level Boston Center
Sun 07:02:26 AM 41.9169 -72.3983 47° Northeast 260 299 9,000  Level Boston Center
Sun 07:03:27 AM 41.9647 -72.3256 49° Northeast 260 299 9,000  Level Boston Center
Sun 07:04:27 AM 42.0147 -72.2556 46° Northeast 257 296 9,000  Level Boston Center
Sun 07:05:34 AM 42.0667 -72.1744 49° Northeast 256 295 9,000  Level Boston Center
Sun 07:06:29 AM 42.1103 -72.1097 48° Northeast 256 295 9,000 -417 Level Boston Center
Sun 07:07:29 AM 42.1622 -72.0425 44° Northeast 261 300 8,200 -1,240 Descending Boston Center
Sun 07:08:30 AM 42.2139 -71.9636 48° Northeast 274 315 6,500 -1,488 Descending Boston Center
Sun 07:09:30 AM 42.2614 -71.8903 49° Northeast 260 299 5,200 -439 Descending Boston Center
Sun 07:11:55 AM 42.3667 -71.7333 48° Northeast 231 266 5,000 -293 Descending KA90
Sun 07:12:55 AM 42.4000 -71.6500 62° Northeast 250 288 4,200 -526 Descending KA90
Sun 07:13:49 AM 42.4333 -71.5833 56° Northeast 239 275 4,000 -632 Descending KA90
Sun 07:14:49 AM 42.4667 -71.5167 56° Northeast 240 276 3,000 -1,000 Descending KA90
Sun 07:15:49 AM 42.4833 -71.4333 75° East 216 249 2,000 -900 Descending KA90
Sun 07:16:49 AM 42.4833 -71.3667 90° East 175 201 1,200 -800 Descending KA90

Login

Don't have an account? Register now (free) for customized features, flight alerts, and more!